Aviation Digital Data Service (ADDS)

Output produced by METARs form (1705 UTC 24 April 2017)
found at http://www.aviationweather.gov/adds/metars/
 
GOGS 241600Z VRB10KT CAVOK 27/20 Q1011
TAF GOGS 241130Z 2412/2512 32010KT CAVOK
       
GOGG 241600Z 27004KT CAVOK 39/16 Q1009
GOGK 241200Z 08004KT CAVOK 35/12 Q1012
GOGS 241600Z VRB10KT CAVOK 27/20 Q1011
TAF GOGS 241130Z 2412/2512 32010KT CAVOK
       
GOOD 241500Z 36004KT CAVOK 38/14 Q1010
GOOG 241500Z 36002KT CAVOK 40/06 Q////
GOOK 241500Z 04004KT CAVOK 39/15 Q1011
GOOY 241700Z 01014KT CAVOK 24/19 Q1011 NOSIG
TAF GOOY 241130Z 2412/2518 36014KT CAVOK 
     PROB40 
     TEMPO 2502/2506 BKN006
       
GOSM 241500Z 32004KT CAVOK 41/09 Q1009
GOSP 241500Z 36002KT CAVOK 39/08 Q1010
GOSS 241500Z 34010KT CAVOK 27/18 Q1011
TAF GOSS 241130Z 2412/2512 34010KT CAVOK 
     PROB30 
     TEMPO 2502/2506 BKN006
       
GOTK 241500Z 28004KT CAVOK 41/15 Q1009
GOTT 241500Z VRB04KT CAVOK 40/09 Q1008
GOOK 241500Z 04004KT CAVOK 39/15 Q1011
GOTK 241500Z 28004KT CAVOK 41/15 Q1009
GOOY 241700Z 01014KT CAVOK 24/19 Q1011 NOSIG
TAF GOOY 241130Z 2412/2518 36014KT CAVOK 
     PROB40 
     TEMPO 2502/2506 BKN006
       
GOSS 241500Z 34010KT CAVOK 27/18 Q1011
TAF GOSS 241130Z 2412/2512 34010KT CAVOK 
     PROB30 
     TEMPO 2502/2506 BKN006
       
GOTT 241500Z VRB04KT CAVOK 40/09 Q1008
GOGG 241600Z 27004KT CAVOK 39/16 Q1009